Wetterdaten: Woche 27.09.04 - 03.10.04 (KW40)
Datum Zeit Temperatur Luftfeuchte Luftdruck Regenmenge Wind Richtung Taupunkt Windchill
27.09.2004 00:00 9.6 C 100 % 1026.0 hPa 0.0 l/m 0.0 km/h (0 Bft) N 9.6 C 9.6 C
27.09.2004 01:00 9.6 C 100 % 1026.0 hPa 0.0 l/m 0.0 km/h (0 Bft) N 9.6 C 9.6 C
27.09.2004 02:00 9.6 C 100 % 1026.0 hPa 0.0 l/m 1.5 km/h (1 Bft) W-NW 9.6 C 9.5 C
27.09.2004 03:00 9.5 C 100 % 1025.3 hPa 0.0 l/m 0.1 km/h (0 Bft) N 9.5 C 9.5 C
27.09.2004 04:00 8.8 C 100 % 1025.9 hPa 0.0 l/m 0.7 km/h (0 Bft) NW 8.8 C 8.8 C
27.09.2004 05:00 8.6 C 100 % 1026.2 hPa 0.0 l/m 1.8 km/h (1 Bft) W-NW 8.6 C 8.4 C
27.09.2004 06:00 8.8 C 100 % 1026.1 hPa 0.0 l/m 0.1 km/h (0 Bft) N 8.8 C 8.8 C
27.09.2004 07:00 8.8 C 100 % 1026.1 hPa 0.0 l/m 0.4 km/h (0 Bft) SO 8.8 C 8.8 C
27.09.2004 08:00 8.7 C 100 % 1026.1 hPa 0.0 l/m 2.5 km/h (1 Bft) O-SO 8.7 C 8.6 C
27.09.2004 09:00 9.0 C 100 % 1026.1 hPa 0.0 l/m 0.1 km/h (0 Bft) N 9.0 C 9.0 C
27.09.2004 10:00 9.9 C 96 % 1026.0 hPa 0.0 l/m 1.6 km/h (1 Bft) S 9.3 C 9.8 C
27.09.2004 11:00 11.0 C 88 % 1025.8 hPa 0.0 l/m 2.5 km/h (1 Bft) O-SO 9.1 C 11.0 C
27.09.2004 12:00 11.8 C 85 % 1025.5 hPa 0.3 l/m 4.4 km/h (1 Bft) O-SO 9.3 C 11.8 C
27.09.2004 13:00 11.8 C 89 % 1025.6 hPa 0.0 l/m 1.5 km/h (1 Bft) W 10.0 C 11.8 C
27.09.2004 14:00 13.0 C 83 % 1024.5 hPa 0.0 l/m 2.8 km/h (1 Bft) O 10.1 C 13.0 C
27.09.2004 15:00 14.0 C 76 % 1023.5 hPa 0.0 l/m 3.5 km/h (1 Bft) O-SO 9.9 C 14.0 C
27.09.2004 16:00 14.3 C 74 % 1023.3 hPa 0.0 l/m 0.5 km/h (0 Bft) O-SO 9.8 C 14.3 C
27.09.2004 17:00 14.6 C 74 % 1023.3 hPa 0.0 l/m 0.1 km/h (0 Bft) N 10.1 C 14.6 C
27.09.2004 18:00 14.0 C 78 % 1023.3 hPa 0.0 l/m 0.6 km/h (0 Bft) O-SO 10.1 C 14.0 C
27.09.2004 19:00 13.1 C 84 % 1023.5 hPa 0.0 l/m 0.7 km/h (0 Bft) O-SO 10.4 C 13.1 C
27.09.2004 20:00 12.8 C 87 % 1023.5 hPa 0.0 l/m 1.4 km/h (1 Bft) SO 10.7 C 12.8 C
27.09.2004 21:00 12.7 C 89 % 1023.5 hPa 0.0 l/m 2.3 km/h (1 Bft) SO 11.0 C 12.7 C
27.09.2004 22:00 12.3 C 92 % 1024.4 hPa 0.0 l/m 3.0 km/h (1 Bft) SO 11.1 C 12.3 C
27.09.2004 23:00 12.4 C 91 % 1024.5 hPa 0.0 l/m 3.0 km/h (1 Bft) O-SO 11.0 C 12.4 C
28.09.2004 00:00 12.4 C 91 % 1024.3 hPa 0.0 l/m 1.8 km/h (1 Bft) O-SO 11.0 C 12.4 C
28.09.2004 01:00 12.3 C 93 % 1024.6 hPa 0.0 l/m 0.3 km/h (0 Bft) SO 11.1 C 12.3 C
28.09.2004 02:00 12.4 C 92 % 1023.7 hPa 0.0 l/m 0.4 km/h (0 Bft) SO 11.1 C 12.4 C
28.09.2004 03:00 12.2 C 92 % 1023.6 hPa 0.0 l/m 0.6 km/h (0 Bft) S-SO 11.0 C 12.2 C
28.09.2004 04:00 12.1 C 93 % 1023.6 hPa 0.0 l/m 0.4 km/h (0 Bft) S-SO 11.1 C 12.1 C
28.09.2004 05:00 12.1 C 94 % 1023.3 hPa 0.0 l/m 1.9 km/h (1 Bft) S-SO 11.1 C 12.1 C
28.09.2004 06:00 12.0 C 95 % 1022.6 hPa 0.0 l/m 1.8 km/h (1 Bft) S-SO 11.3 C 12.0 C
28.09.2004 07:00 11.9 C 96 % 1022.8 hPa 0.0 l/m 2.6 km/h (1 Bft) SO 11.3 C 11.9 C
28.09.2004 08:00 12.2 C 97 % 1023.6 hPa 0.0 l/m 1.4 km/h (1 Bft) SO 11.7 C 12.2 C
28.09.2004 09:00 12.9 C 95 % 1023.5 hPa 0.0 l/m 2.6 km/h (1 Bft) SO 12.1 C 12.9 C
28.09.2004 10:00 14.0 C 89 % 1023.3 hPa 0.0 l/m 0.5 km/h (0 Bft) SO 12.2 C 14.0 C
28.09.2004 11:00 14.5 C 85 % 1023.3 hPa 0.0 l/m 0.4 km/h (0 Bft) SO 12.0 C 14.5 C
28.09.2004 12:00 15.6 C 77 % 1022.3 hPa 0.0 l/m 1.0 km/h (0 Bft) SO 11.6 C 15.6 C
28.09.2004 13:00 16.4 C 72 % 1021.9 hPa 0.0 l/m 3.4 km/h (1 Bft) W-NW 11.3 C 16.4 C
28.09.2004 14:00 18.0 C 65 % 1020.7 hPa 0.0 l/m 4.1 km/h (1 Bft) W-NW 11.4 C 18.0 C
28.09.2004 15:00 18.2 C 66 % 1020.7 hPa 0.0 l/m 0.4 km/h (0 Bft) O-SO 11.7 C 18.2 C
28.09.2004 16:00 17.9 C 65 % 1019.8 hPa 0.0 l/m 0.6 km/h (0 Bft) W 11.2 C 17.9 C
28.09.2004 17:00 16.8 C 76 % 1019.9 hPa 0.0 l/m 0.1 km/h (0 Bft) O-SO 12.6 C 16.8 C
28.09.2004 18:00 16.2 C 79 % 1019.9 hPa 0.0 l/m 0.2 km/h (0 Bft) SO 12.5 C 16.2 C
28.09.2004 19:00 15.6 C 83 % 1020.0 hPa 0.0 l/m 0.0 km/h (0 Bft) N 12.7 C 15.6 C
28.09.2004 20:00 15.0 C 87 % 1020.1 hPa 0.0 l/m 0.0 km/h (0 Bft) N 12.9 C 15.0 C
28.09.2004 21:00 14.3 C 92 % 1020.2 hPa 0.0 l/m 0.3 km/h (0 Bft) SO 13.0 C 14.3 C
28.09.2004 22:00 13.5 C 97 % 1020.3 hPa 0.0 l/m 0.2 km/h (0 Bft) SO 12.9 C 13.5 C
28.09.2004 23:00 12.2 C 98 % 1020.4 hPa 0.0 l/m 0.5 km/h (0 Bft) SO 11.8 C 12.2 C
29.09.2004 00:00 11.7 C 100 % 1020.5 hPa 0.0 l/m 3.3 km/h (1 Bft) SO 11.7 C 11.7 C
29.09.2004 01:00 11.9 C 100 % 1019.6 hPa 0.0 l/m 1.5 km/h (1 Bft) SO 11.9 C 11.9 C
29.09.2004 02:00 11.6 C 100 % 1019.5 hPa 0.0 l/m 1.5 km/h (1 Bft) SO 11.6 C 11.6 C
29.09.2004 03:00 11.9 C 100 % 1019.5 hPa 0.0 l/m 0.0 km/h (0 Bft) N 11.9 C 11.9 C
29.09.2004 04:00 12.3 C 100 % 1019.4 hPa 0.0 l/m 0.1 km/h (0 Bft) N 12.3 C 12.3 C
29.09.2004 05:00 12.4 C 100 % 1019.4 hPa 0.0 l/m 0.9 km/h (0 Bft) SO 12.4 C 12.4 C
29.09.2004 06:00 12.4 C 100 % 1019.4 hPa 0.0 l/m 3.9 km/h (1 Bft) O-SO 12.4 C 12.4 C
29.09.2004 07:00 12.6 C 100 % 1019.4 hPa 0.0 l/m 1.1 km/h (1 Bft) O-SO 12.6 C 12.6 C
29.09.2004 08:00 13.1 C 97 % 1019.3 hPa 0.0 l/m 3.9 km/h (1 Bft) SO 12.6 C 13.1 C
29.09.2004 09:00 13.9 C 90 % 1019.2 hPa 0.0 l/m 1.7 km/h (1 Bft) SO 12.3 C 13.9 C
29.09.2004 10:00 14.4 C 87 % 1019.1 hPa 0.0 l/m 2.5 km/h (1 Bft) O-SO 12.2 C 14.4 C
29.09.2004 11:00 15.1 C 84 % 1019.0 hPa 0.0 l/m 0.3 km/h (0 Bft) W-SW 12.3 C 15.1 C
29.09.2004 12:00 15.6 C 79 % 1019.0 hPa 0.0 l/m 0.9 km/h (0 Bft) W 12.1 C 15.6 C
29.09.2004 13:00 16.4 C 76 % 1018.9 hPa 0.0 l/m 1.4 km/h (1 Bft) W 12.1 C 16.4 C
29.09.2004 14:00 16.9 C 73 % 1018.7 hPa 0.0 l/m 11.7 km/h (2 Bft) W-NW 12.0 C 16.9 C
29.09.2004 15:00 17.5 C 68 % 1018.5 hPa 0.0 l/m 17.6 km/h (3 Bft) W-NW 11.6 C 17.5 C
29.09.2004 16:00 17.7 C 66 % 1018.7 hPa 0.0 l/m 17.8 km/h (3 Bft) W-NW 11.3 C 17.7 C
29.09.2004 17:00 16.8 C 71 % 1018.5 hPa 0.0 l/m 8.3 km/h (2 Bft) W-NW 11.6 C 16.8 C
29.09.2004 18:00 16.0 C 79 % 1018.9 hPa 0.0 l/m 11.1 km/h (2 Bft) W-NW 12.4 C 16.0 C
29.09.2004 19:00 15.2 C 85 % 1019.0 hPa 0.0 l/m 6.0 km/h (2 Bft) W 12.6 C 15.2 C
29.09.2004 20:00 15.0 C 86 % 1020.0 hPa 0.0 l/m 2.7 km/h (1 Bft) W 12.7 C 15.0 C
29.09.2004 21:00 15.0 C 86 % 1020.1 hPa 0.0 l/m 7.4 km/h (2 Bft) W-NW 12.8 C 15.0 C
29.09.2004 22:00 14.3 C 90 % 1020.2 hPa 0.0 l/m 1.6 km/h (1 Bft) W-NW 12.7 C 14.3 C
29.09.2004 23:00 14.0 C 92 % 1020.2 hPa 0.0 l/m 0.2 km/h (0 Bft) N 12.7 C 14.0 C
30.09.2004 00:00 12.9 C 95 % 1020.4 hPa 0.0 l/m 0.2 km/h (0 Bft) S 12.1 C 12.9 C
30.09.2004 01:00 11.8 C 98 % 1020.5 hPa 0.0 l/m 0.2 km/h (0 Bft) N 11.5 C 11.8 C
30.09.2004 02:00 11.5 C 99 % 1020.6 hPa 0.0 l/m 0.0 km/h (0 Bft) N 11.4 C 11.5 C
30.09.2004 03:00 11.3 C 100 % 1020.6 hPa 0.0 l/m 1.5 km/h (1 Bft) S 11.3 C 11.3 C
30.09.2004 04:00 11.1 C 100 % 1020.6 hPa 0.0 l/m 0.0 km/h (0 Bft) N 11.1 C 11.1 C
30.09.2004 05:00 11.1 C 100 % 1020.6 hPa 0.0 l/m 0.0 km/h (0 Bft) N 11.1 C 11.1 C
30.09.2004 06:00 11.3 C 100 % 1020.6 hPa 0.0 l/m 1.9 km/h (1 Bft) S 11.3 C 11.3 C
30.09.2004 07:00 11.4 C 100 % 1021.0 hPa 0.0 l/m 0.5 km/h (0 Bft) S 11.4 C 11.4 C
30.09.2004 08:00 12.0 C 100 % 1021.5 hPa 0.0 l/m 0.0 km/h (0 Bft) N 12.0 C 12.0 C
30.09.2004 09:00 12.7 C 100 % 1021.5 hPa 0.0 l/m 0.0 km/h (0 Bft) N 12.7 C 12.7 C
30.09.2004 10:00 13.7 C 95 % 1022.3 hPa 0.0 l/m 0.9 km/h (0 Bft) W-SW 12.9 C 13.7 C
30.09.2004 11:00 15.2 C 87 % 1021.5 hPa 0.0 l/m 0.3 km/h (0 Bft) W-SW 13.0 C 15.2 C
30.09.2004 12:00 17.4 C 74 % 1021.3 hPa 0.0 l/m 2.0 km/h (1 Bft) O-SO 12.8 C 17.4 C
30.09.2004 13:00 19.1 C 65 % 1020.6 hPa 0.0 l/m 2.8 km/h (1 Bft) O-SO 12.3 C 19.1 C
30.09.2004 14:00 19.8 C 60 % 1020.5 hPa 0.0 l/m 2.3 km/h (1 Bft) O-SO 11.8 C 19.8 C
30.09.2004 15:00 20.9 C 58 % 1020.2 hPa 0.0 l/m 1.3 km/h (1 Bft) O-SO 12.2 C 20.9 C
30.09.2004 16:00 22.5 C 51 % 1019.1 hPa 0.0 l/m 0.8 km/h (0 Bft) O-SO 11.9 C 22.5 C
30.09.2004 17:00 20.3 C 61 % 1019.4 hPa 0.0 l/m 0.8 km/h (0 Bft) O-SO 12.5 C 20.3 C
30.09.2004 18:00 18.4 C 73 % 1019.6 hPa 0.0 l/m 3.8 km/h (1 Bft) O-SO 13.5 C 18.4 C
30.09.2004 19:00 17.3 C 79 % 1019.9 hPa 0.0 l/m 3.1 km/h (1 Bft) O-SO 13.7 C 17.3 C
30.09.2004 20:00 15.9 C 87 % 1021.0 hPa 0.0 l/m 0.0 km/h (0 Bft) N 13.7 C 15.9 C
30.09.2004 21:00 15.7 C 89 % 1021.0 hPa 0.0 l/m 0.1 km/h (0 Bft) N 14.0 C 15.7 C
30.09.2004 22:00 14.8 C 96 % 1021.2 hPa 0.0 l/m 1.9 km/h (1 Bft) O-SO 14.1 C 14.8 C
30.09.2004 23:00 14.2 C 99 % 1021.2 hPa 0.0 l/m 0.2 km/h (0 Bft) O-SO 14.0 C 14.2 C
01.10.2004 00:00 13.7 C 100 % 1021.3 hPa 0.0 l/m 0.0 km/h (0 Bft) N 13.7 C 13.7 C
01.10.2004 01:00 13.7 C 100 % 1021.3 hPa 0.0 l/m 0.0 km/h (0 Bft) N 13.7 C 13.7 C
01.10.2004 02:00 13.4 C 100 % 1021.3 hPa 0.0 l/m 0.0 km/h (0 Bft) N 13.4 C 13.4 C
01.10.2004 03:00 13.2 C 100 % 1021.4 hPa 0.0 l/m 0.7 km/h (0 Bft) O-SO 13.2 C 13.2 C
01.10.2004 04:00 12.6 C 100 % 1021.5 hPa 0.0 l/m 1.3 km/h (1 Bft) O-SO 12.6 C 12.6 C
01.10.2004 05:00 13.1 C 100 % 1021.4 hPa 0.0 l/m 0.0 km/h (0 Bft) N 13.1 C 13.1 C
01.10.2004 06:00 13.4 C 100 % 1021.3 hPa 0.0 l/m 0.0 km/h (0 Bft) N 13.4 C 13.4 C
01.10.2004 07:00 13.5 C 100 % 1021.3 hPa 0.0 l/m 0.6 km/h (0 Bft) SO 13.5 C 13.5 C
01.10.2004 08:00 13.8 C 100 % 1022.0 hPa 0.0 l/m 0.9 km/h (0 Bft) O-SO 13.8 C 13.8 C
01.10.2004 09:00 14.3 C 100 % 1022.3 hPa 0.0 l/m 0.9 km/h (0 Bft) O-SO 14.3 C 14.3 C
01.10.2004 10:00 15.1 C 98 % 1022.2 hPa 0.0 l/m 0.0 km/h (0 Bft) N 14.8 C 15.1 C
01.10.2004 11:00 16.8 C 81 % 1021.9 hPa 0.0 l/m 9.0 km/h (2 Bft) W-NW 13.4 C 16.8 C
01.10.2004 12:00 18.5 C 68 % 1021.7 hPa 0.0 l/m 12.5 km/h (3 Bft) W-NW 12.4 C 18.5 C
01.10.2004 13:00 19.4 C 62 % 1021.3 hPa 0.0 l/m 16.0 km/h (3 Bft) W-NW 12.0 C 19.4 C
01.10.2004 14:00 20.4 C 54 % 1020.4 hPa 0.0 l/m 17.4 km/h (3 Bft) W-NW 10.8 C 20.4 C
01.10.2004 15:00 21.2 C 51 % 1020.0 hPa 0.0 l/m 18.0 km/h (3 Bft) W-NW 10.6 C 21.2 C
01.10.2004 16:00 20.9 C 47 % 1019.3 hPa 0.0 l/m 18.6 km/h (3 Bft) W-NW 9.0 C 20.9 C
01.10.2004 17:00 20.1 C 48 % 1019.4 hPa 0.0 l/m 10.9 km/h (2 Bft) W-NW 8.9 C 20.1 C
01.10.2004 18:00 18.0 C 60 % 1019.7 hPa 0.0 l/m 2.2 km/h (1 Bft) O-SO 10.1 C 18.0 C
01.10.2004 19:00 15.8 C 76 % 1020.8 hPa 0.0 l/m 5.9 km/h (2 Bft) O-SO 11.5 C 15.8 C
01.10.2004 20:00 14.9 C 81 % 1021.1 hPa 0.0 l/m 0.0 km/h (0 Bft) N 11.6 C 14.9 C
01.10.2004 21:00 13.9 C 86 % 1021.3 hPa 0.0 l/m 0.0 km/h (0 Bft) N 11.5 C 13.9 C
01.10.2004 22:00 12.8 C 92 % 1022.3 hPa 0.0 l/m 1.4 km/h (1 Bft) O-SO 11.4 C 12.8 C
01.10.2004 23:00 11.7 C 96 % 1022.5 hPa 0.0 l/m 0.3 km/h (0 Bft) O-SO 11.1 C 11.7 C
02.10.2004 00:00 11.0 C 97 % 1022.1 hPa 0.0 l/m 1.0 km/h (0 Bft) O-SO 10.6 C 11.0 C
02.10.2004 01:00 10.8 C 99 % 1022.1 hPa 0.0 l/m 0.4 km/h (0 Bft) O-SO 10.6 C 10.8 C
02.10.2004 02:00 10.9 C 100 % 1022.2 hPa 0.0 l/m 2.8 km/h (1 Bft) O-SO 10.9 C 10.9 C
02.10.2004 03:00 10.2 C 100 % 1022.4 hPa 0.0 l/m 1.4 km/h (1 Bft) O-SO 10.2 C 10.2 C
02.10.2004 04:00 10.2 C 100 % 1022.8 hPa 0.0 l/m 0.7 km/h (0 Bft) O-SO 10.2 C 10.2 C
02.10.2004 05:00 10.4 C 100 % 1022.8 hPa 0.0 l/m 1.0 km/h (0 Bft) O 10.4 C 10.4 C
02.10.2004 06:00 10.6 C 100 % 1022.8 hPa 0.0 l/m 0.0 km/h (0 Bft) N 10.6 C 10.6 C
02.10.2004 07:00 10.7 C 100 % 1022.9 hPa 0.0 l/m 2.2 km/h (1 Bft) O 10.7 C 10.7 C
02.10.2004 08:00 11.6 C 99 % 1023.7 hPa 0.0 l/m 0.0 km/h (0 Bft) N 11.6 C 11.6 C
02.10.2004 09:00 12.8 C 92 % 1023.5 hPa 0.0 l/m 0.0 km/h (0 Bft) N 11.5 C 12.8 C
02.10.2004 10:00 14.4 C 88 % 1023.3 hPa 0.0 l/m 0.7 km/h (0 Bft) O 12.5 C 14.4 C
02.10.2004 11:00 16.1 C 75 % 1023.1 hPa 0.0 l/m 5.6 km/h (1 Bft) W-NW 11.6 C 16.1 C
02.10.2004 12:00 16.5 C 71 % 1023.0 hPa 0.0 l/m 13.4 km/h (3 Bft) W-NW 11.2 C 16.5 C
02.10.2004 13:00 17.0 C 66 % 1022.9 hPa 0.0 l/m 12.1 km/h (2 Bft) W-NW 10.5 C 17.0 C
02.10.2004 14:00 18.0 C 60 % 1022.4 hPa 0.0 l/m 15.2 km/h (3 Bft) W-NW 10.2 C 18.0 C
02.10.2004 15:00 18.0 C 59 % 1021.8 hPa 0.0 l/m 11.9 km/h (2 Bft) W-NW 9.9 C 18.0 C
02.10.2004 16:00 18.0 C 60 % 1021.8 hPa 0.0 l/m 6.6 km/h (2 Bft) W-NW 10.2 C 18.0 C
02.10.2004 17:00 17.7 C 60 % 1021.8 hPa 0.0 l/m 10.9 km/h (2 Bft) W-NW 9.9 C 17.7 C
02.10.2004 18:00 16.0 C 70 % 1022.6 hPa 0.0 l/m 13.4 km/h (3 Bft) W-NW 10.6 C 16.0 C
02.10.2004 19:00 14.6 C 76 % 1023.3 hPa 0.0 l/m 5.1 km/h (1 Bft) W-NW 10.4 C 14.6 C
02.10.2004 20:00 14.0 C 81 % 1023.3 hPa 0.0 l/m 0.0 km/h (0 Bft) N 10.9 C 14.0 C
02.10.2004 21:00 13.1 C 86 % 1024.5 hPa 0.0 l/m 0.1 km/h (0 Bft) NW 10.7 C 13.1 C
02.10.2004 22:00 12.2 C 91 % 1024.6 hPa 0.0 l/m 1.9 km/h (1 Bft) O 10.8 C 12.2 C
02.10.2004 23:00 12.4 C 94 % 1024.6 hPa 0.0 l/m 1.5 km/h (1 Bft) O 11.4 C 12.4 C
03.10.2004 00:00 11.8 C 93 % 1024.7 hPa 0.0 l/m 3.2 km/h (1 Bft) O 10.7 C 11.8 C
03.10.2004 01:00 10.7 C 96 % 1024.8 hPa 0.0 l/m 1.7 km/h (1 Bft) O 10.2 C 10.7 C
03.10.2004 02:00 10.0 C 98 % 1024.9 hPa 0.0 l/m 1.5 km/h (1 Bft) O 9.7 C 10.0 C
03.10.2004 03:00 9.3 C 100 % 1025.0 hPa 0.0 l/m 0.5 km/h (0 Bft) O 9.2 C 9.2 C
03.10.2004 04:00 9.0 C 100 % 1025.7 hPa 0.0 l/m 0.1 km/h (0 Bft) O 9.0 C 9.0 C
03.10.2004 05:00 8.8 C 100 % 1025.8 hPa 0.0 l/m 0.0 km/h (0 Bft) N 8.8 C 8.8 C
03.10.2004 06:00 8.7 C 100 % 1025.7 hPa 0.0 l/m 0.0 km/h (0 Bft) N 8.7 C 8.7 C
03.10.2004 07:00 9.1 C 100 % 1026.1 hPa 0.0 l/m 0.0 km/h (0 Bft) N 9.1 C 9.1 C
03.10.2004 08:00 9.6 C 100 % 1026.0 hPa 0.0 l/m 0.0 km/h (0 Bft) N 9.6 C 9.6 C
03.10.2004 09:00 9.9 C 100 % 1026.1 hPa 0.0 l/m 0.0 km/h (0 Bft) N 9.9 C 9.9 C
03.10.2004 10:00 11.2 C 97 % 1026.1 hPa 0.0 l/m 0.0 km/h (0 Bft) N 10.7 C 11.2 C
03.10.2004 11:00 13.9 C 82 % 1025.4 hPa 0.0 l/m 0.5 km/h (0 Bft) NO 10.8 C 13.9 C
03.10.2004 12:00 16.4 C 69 % 1024.8 hPa 0.0 l/m 1.7 km/h (1 Bft) NW 10.6 C 16.4 C
03.10.2004 13:00 18.5 C 53 % 1023.8 hPa 0.0 l/m 0.4 km/h (0 Bft) W-NW 8.5 C 18.5 C
03.10.2004 14:00 20.0 C 47 % 1023.3 hPa 0.0 l/m 0.9 km/h (0 Bft) NW 8.4 C 20.0 C
03.10.2004 15:00 20.7 C 47 % 1022.6 hPa 0.0 l/m 0.5 km/h (0 Bft) S 8.9 C 20.7 C
03.10.2004 16:00 20.9 C 47 % 1021.9 hPa 0.0 l/m 2.9 km/h (1 Bft) S-SO 9.0 C 20.9 C
03.10.2004 17:00 19.5 C 51 % 1021.6 hPa 0.0 l/m 0.5 km/h (0 Bft) W-NW 8.9 C 19.5 C
03.10.2004 18:00 17.2 C 66 % 1021.9 hPa 0.0 l/m 2.7 km/h (1 Bft) S-SO 10.9 C 17.2 C
03.10.2004 19:00 14.6 C 79 % 1022.2 hPa 0.0 l/m 4.6 km/h (1 Bft) O-SO 11.0 C 14.6 C
03.10.2004 20:00 12.7 C 88 % 1022.5 hPa 0.0 l/m 0.3 km/h (0 Bft) O-SO 10.8 C 12.7 C
03.10.2004 21:00 11.8 C 93 % 1022.6 hPa 0.0 l/m 0.0 km/h (0 Bft) N 10.7 C 11.8 C
03.10.2004 22:00 10.7 C 95 % 1022.8 hPa 0.0 l/m 0.0 km/h (0 Bft) N 10.0 C 10.7 C
03.10.2004 23:00 10.3 C 97 % 1022.8 hPa 0.0 l/m 0.3 km/h (0 Bft) O-SO 9.9 C 10.3 C
Min-Datum _ 03.10.04 03.10.04 29.09.04 - 27.09.04 - 03.10.04 27.09.04
_ Min-Zeit 06:20 14:26 15:17 - 00:02 - 13:38 08:08
Minimum _ 8.2 C 43 % 1017.7 hPa - 0.0 km/h (0 Bft) - 6.7 C 7.1 C
Max-Datum _ 30.09.04 27.09.04 03.10.04 27.09.04 29.09.04 - 01.10.04 30.09.04
_ Max-Zeit 16:22 00:02 09:41 12:53 16:11 - 10:38 16:22
Maximum _ 23.4 C 100 % 1027.0 hPa 0.3 l/m 33.1 km/h
W-NW (5 Bft)
- 15.1 C 23.4 C
Durchschnitt _ 13.9 C 86 % 1022.2 hPa #0.3 l/m 2.6 km/h (1 Bft) W-NW 11.3 C 13.9 C

Durchschnitt Minimum Temp.13.3 C
Durchschnitt Maximum Temp.14.5 C
© Kaiko 2004